Hovedside
METAR-TAF:

METAR-TAF

Lufthavner :

Baker City, Oregon, USA

breddegrad: 44-50-14N, lengdegrad: 117-48-33W, høyde over havet: 1028 m

Gjeldene værobservasjon

Denne rapporten ble laget for 55 minutter siden, klokken 22:53 UTC
Vind 8 kt fra Vest-nordvest
Temperatur 27°C
Luftfuktighet 30%
Trykk 1019 hPa
Sikt: 16.1 km
Skyfri himmel

METAR: KBKE 212253Z AUTO 30008KT 10SM CLR 27/08 A3008 RMK AO2 SLP162 T02720078

Tid: 16:48 (23:48 UTC)

Varsel

Denne rapporten ble laget for 28 minutter siden, klokken 23:20 UTC
Varsel gyldig fra 22. klokken 00 UTC til 22. klokken 24 UTC
Vind 8 kt fra Nordvest
Sikt: 10 km
Skyfri himmel

TAF: KBKE 212320Z 2200/2224 31008KT P6SM SKC

Værobservasjoner og værvarsel for over 4000 flyplasser (METAR- og TAF-rapporter).

Tilgjengelige stasjoner er representert av de røde og gule prikkene på kartet.

Hold musepekeren over prikken for å se navnet på stasjonen.

Klikk så for å se værobservasjoner og -varsler.

For å forandre kartet kan du klikke på den grønne knappen med svart kryss for å zoome inn, på den grønne knappen med strek for å zoome ut, eller på de grønne pilene for å se tilstøtende kart.


METAR-TAF: